Time,TemperatureF,DewpointF,PressureIn,WindDirection,WindDirectionDegrees,WindSpeedMPH,WindSpeedGustMPH,Humidity,HourlyPrecipIn,Conditions,Clouds,dailyrainin,SoftwareType,DateUTC
2013-02-13 00:00:00,41.3,36.5,30.27,SW,225,0.0,0.0,83,0.00,,CLR,0.00,VWS V13.01,2013-02-13 08:00:00,
2013-02-13 00:15:00,41.1,36.3,30.27,SW,225,0.0,0.0,83,0.00,,CLR,0.00,VWS V13.01,2013-02-13 08:15:00,
2013-02-13 00:30:00,40.8,36.0,30.27,SW,225,0.0,0.0,83,0.00,,CLR,0.00,VWS V13.01,2013-02-13 08:30:00,
2013-02-13 00:45:00,40.2,35.5,30.28,SW,225,0.0,0.0,83,0.00,,CLR,0.00,VWS V13.01,2013-02-13 08:45:00,
2013-02-13 01:00:00,39.8,35.4,30.27,SW,225,0.0,3.0,84,0.00,,CLR,0.00,VWS V13.01,2013-02-13 09:00:00,
2013-02-13 01:15:00,39.3,34.9,30.27,SW,225,0.0,0.0,84,0.00,,CLR,0.00,VWS V13.01,2013-02-13 09:15:00,
2013-02-13 01:30:00,38.8,34.4,30.28,SW,225,0.0,0.0,84,0.00,,CLR,0.00,VWS V13.01,2013-02-13 09:30:00,
2013-02-13 01:45:00,38.5,34.4,30.28,SW,225,0.0,0.0,85,0.00,,CLR,0.00,VWS V13.01,2013-02-13 09:45:00,
2013-02-13 02:00:00,38.5,35.0,30.28,SW,225,0.0,0.0,87,0.00,,CLR,0.00,VWS V13.01,2013-02-13 10:00:00,
2013-02-13 02:15:00,38.4,35.2,30.28,SW,225,0.0,0.0,88,0.00,,CLR,0.00,VWS V13.01,2013-02-13 10:15:00,
2013-02-13 02:30:00,38.2,34.7,30.28,SW,225,0.0,0.0,87,0.00,,CLR,0.00,VWS V13.01,2013-02-13 10:30:00,
2013-02-13 02:45:00,37.9,34.4,30.28,SW,225,0.0,0.0,87,0.00,,CLR,0.00,VWS V13.01,2013-02-13 10:45:00,
2013-02-13 03:00:00,37.3,33.8,30.27,SW,225,0.0,0.0,87,0.00,,CLR,0.00,VWS V13.01,2013-02-13 11:00:00,
2013-02-13 03:15:00,37.0,33.8,30.27,SW,225,0.0,0.0,88,0.00,,CLR,0.00,VWS V13.01,2013-02-13 11:15:00,
2013-02-13 03:30:00,37.1,34.2,30.27,SW,225,0.0,0.0,89,0.00,,CLR,0.00,VWS V13.01,2013-02-13 11:30:00,
2013-02-13 03:45:00,36.9,34.0,30.26,SW,225,0.0,0.0,89,0.00,,CLR,0.00,VWS V13.01,2013-02-13 11:45:00,
2013-02-13 04:00:00,36.7,33.8,30.27,SW,225,0.0,0.0,89,0.00,,CLR,0.00,VWS V13.01,2013-02-13 12:00:00,
2013-02-13 04:15:00,36.4,33.5,30.27,SW,225,0.0,0.0,89,0.00,,CLR,0.00,VWS V13.01,2013-02-13 12:15:00,
2013-02-13 04:30:00,36.1,33.2,30.27,SW,225,0.0,0.0,89,0.00,,CLR,0.00,VWS V13.01,2013-02-13 12:30:00,
2013-02-13 04:45:00,35.9,33.3,30.27,SW,225,0.0,0.0,90,0.00,,CLR,0.00,VWS V13.01,2013-02-13 12:45:00,
2013-02-13 05:00:00,35.6,32.7,30.27,SW,225,0.0,0.0,89,0.00,,CLR,0.00,VWS V13.01,2013-02-13 13:00:00,
2013-02-13 05:15:00,35.2,32.6,30.27,SW,225,0.0,0.0,90,0.00,,CLR,0.00,VWS V13.01,2013-02-13 13:15:00,
2013-02-13 05:30:00,34.8,32.2,30.27,SW,225,0.0,0.0,90,0.00,,CLR,0.00,VWS V13.01,2013-02-13 13:30:00,
2013-02-13 05:45:00,34.8,32.2,30.27,SW,225,0.0,0.0,90,0.00,,CLR,0.00,VWS V13.01,2013-02-13 13:45:00,
2013-02-13 06:00:00,34.7,32.1,30.27,SW,225,0.0,0.0,90,0.00,,CLR,0.00,VWS V13.01,2013-02-13 14:00:00,
2013-02-13 06:15:00,35.0,32.6,30.27,SW,225,0.0,0.0,91,0.00,,CLR,0.00,VWS V13.01,2013-02-13 14:15:00,
2013-02-13 06:30:00,34.8,32.5,30.27,SW,225,0.0,0.0,91,0.00,,CLR,0.00,VWS V13.01,2013-02-13 14:30:00,
2013-02-13 06:45:00,34.8,32.5,30.28,SW,225,0.0,0.0,91,0.00,,CLR,0.00,VWS V13.01,2013-02-13 14:45:00,
2013-02-13 06:56:00,34.7,32.3,30.28,SW,224,0.0,0.0,91,0.00,,CLR,0.00,VWS V13.01,2013-02-13 14:56:00,
2013-02-13 07:02:00,34.8,32.5,30.28,SW,224,0.0,0.0,91,0.00,,CLR,0.00,VWS V13.01,2013-02-13 15:02:00,
2013-02-13 07:09:00,34.9,32.8,30.28,SW,224,0.0,0.0,92,0.00,,CLR,0.00,VWS V13.01,2013-02-13 15:09:00,
2013-02-13 07:15:00,35.1,33.0,30.28,SW,224,0.0,0.0,92,0.00,,CLR,0.00,VWS V13.01,2013-02-13 15:15:00,
2013-02-13 07:21:00,35.2,33.1,30.28,SW,224,0.0,0.0,92,0.00,,CLR,0.00,VWS V13.01,2013-02-13 15:21:00,
2013-02-13 07:27:00,35.2,33.1,30.28,SW,224,0.0,0.0,92,0.00,,CLR,0.00,VWS V13.01,2013-02-13 15:27:00,
2013-02-13 07:33:00,35.4,33.3,30.28,SW,224,0.0,0.0,92,0.00,,CLR,0.00,VWS V13.01,2013-02-13 15:33:00,
2013-02-13 07:39:00,35.8,33.7,30.28,SW,224,0.0,0.0,92,0.00,,CLR,0.00,VWS V13.01,2013-02-13 15:39:00,
2013-02-13 07:45:00,36.2,34.4,30.29,SW,224,0.0,0.0,93,0.00,,CLR,0.00,VWS V13.01,2013-02-13 15:45:00,
2013-02-13 07:51:00,37.0,35.2,30.29,SW,224,0.0,0.0,93,0.00,,CLR,0.00,VWS V13.01,2013-02-13 15:51:00,
2013-02-13 07:57:00,37.8,36.0,30.28,SW,224,0.0,0.0,93,0.00,,CLR,0.00,VWS V13.01,2013-02-13 15:57:00,
2013-02-13 08:03:00,38.7,37.1,30.29,SW,224,1.0,3.0,94,0.00,,CLR,0.00,VWS V13.01,2013-02-13 16:03:00,
2013-02-13 08:09:00,39.8,38.2,30.29,SW,224,1.0,2.0,94,0.00,,CLR,0.00,VWS V13.01,2013-02-13 16:09:00,
2013-02-13 08:15:00,40.9,39.3,30.28,SW,224,1.0,4.0,94,0.00,,CLR,0.00,VWS V13.01,2013-02-13 16:15:00,
2013-02-13 08:21:00,42.0,40.1,30.29,SW,224,0.0,0.0,93,0.00,,CLR,0.00,VWS V13.01,2013-02-13 16:21:00,
2013-02-13 08:27:00,42.9,40.5,30.28,SW,224,2.0,3.0,91,0.00,,CLR,0.00,VWS V13.01,2013-02-13 16:27:00,
2013-02-13 08:33:00,43.8,40.8,30.28,WSW,238,5.0,5.0,89,0.00,,CLR,0.00,VWS V13.01,2013-02-13 16:33:00,
2013-02-13 08:39:00,44.5,40.9,30.28,WSW,243,2.0,5.0,87,0.00,,CLR,0.00,VWS V13.01,2013-02-13 16:39:00,
2013-02-13 08:45:00,45.1,40.9,30.28,WSW,250,5.0,5.0,85,0.00,,CLR,0.00,VWS V13.01,2013-02-13 16:45:00,
2013-02-13 08:51:00,45.8,41.2,30.28,West,269,4.0,6.0,84,0.00,,CLR,0.00,VWS V13.01,2013-02-13 16:51:00,
2013-02-13 08:58:00,46.6,41.7,30.28,West,271,0.0,6.0,83,0.00,,CLR,0.00,VWS V13.01,2013-02-13 16:58:00,
2013-02-13 09:04:00,47.4,42.2,30.28,West,271,0.0,6.0,82,0.00,,CLR,0.00,VWS V13.01,2013-02-13 17:04:00,
2013-02-13 09:10:00,48.3,42.8,30.29,West,271,4.0,5.0,81,0.00,,CLR,0.00,VWS V13.01,2013-02-13 17:10:00,
2013-02-13 09:16:00,49.2,43.0,30.29,West,271,0.0,5.0,79,0.00,,CLR,0.00,VWS V13.01,2013-02-13 17:16:00,
2013-02-13 09:22:00,50.2,42.9,30.29,West,271,0.0,0.0,76,0.00,,CLR,0.00,VWS V13.01,2013-02-13 17:22:00,
2013-02-13 09:28:00,51.1,43.1,30.29,West,271,0.0,0.0,74,0.00,,CLR,0.00,VWS V13.01,2013-02-13 17:28:00,
2013-02-13 09:34:00,52.0,43.3,30.29,West,271,0.0,0.0,72,0.00,,CLR,0.00,VWS V13.01,2013-02-13 17:34:00,
2013-02-13 09:40:00,52.9,43.4,30.29,West,271,0.0,4.0,70,0.00,,CLR,0.00,VWS V13.01,2013-02-13 17:40:00,
2013-02-13 09:46:00,53.6,43.7,30.29,West,271,0.0,4.0,69,0.00,,CLR,0.00,VWS V13.01,2013-02-13 17:46:00,
2013-02-13 09:52:00,54.4,43.7,30.29,West,271,0.0,0.0,67,0.00,,CLR,0.00,VWS V13.01,2013-02-13 17:52:00,
2013-02-13 09:58:00,55.0,43.9,30.29,West,271,2.0,5.0,66,0.00,,CLR,0.00,VWS V13.01,2013-02-13 17:58:00,
2013-02-13 10:04:00,55.6,43.6,30.29,West,271,2.0,6.0,64,0.00,,CLR,0.00,VWS V13.01,2013-02-13 18:04:00,
2013-02-13 10:10:00,56.2,44.2,30.29,WNW,294,5.0,8.0,64,0.00,,CLR,0.00,VWS V13.01,2013-02-13 18:10:00,
2013-02-13 10:16:00,56.8,43.9,30.29,WNW,295,4.0,8.0,62,0.00,,CLR,0.00,VWS V13.01,2013-02-13 18:16:00,
2013-02-13 10:22:00,57.3,44.0,30.29,WNW,301,6.0,7.0,61,0.00,,CLR,0.00,VWS V13.01,2013-02-13 18:22:00,
2013-02-13 10:28:00,57.8,44.0,30.29,NW,309,6.0,7.0,60,0.00,,CLR,0.00,VWS V13.01,2013-02-13 18:28:00,
2013-02-13 10:34:00,58.1,43.4,30.29,NW,313,6.0,7.0,58,0.00,,CLR,0.00,VWS V13.01,2013-02-13 18:34:00,
2013-02-13 10:41:00,58.5,44.2,30.28,NNW,330,6.0,9.0,59,0.00,,CLR,0.00,VWS V13.01,2013-02-13 18:41:00,
2013-02-13 10:47:00,59.0,43.3,30.28,NNW,331,6.0,9.0,56,0.00,,CLR,0.00,VWS V13.01,2013-02-13 18:47:00,
2013-02-13 10:53:00,59.5,42.9,30.28,NNW,339,2.0,9.0,54,0.00,,CLR,0.00,VWS V13.01,2013-02-13 18:53:00,
2013-02-13 10:59:00,59.9,41.2,30.28,NW,321,10.0,11.0,50,0.00,,CLR,0.00,VWS V13.01,2013-02-13 18:59:00,
2013-02-13 11:05:00,59.7,41.0,30.28,NNW,345,6.0,15.0,50,0.00,,CLR,0.00,VWS V13.01,2013-02-13 19:05:00,
2013-02-13 11:11:00,59.9,42.2,30.28,NNW,344,7.0,13.0,52,0.00,,CLR,0.00,VWS V13.01,2013-02-13 19:11:00,
2013-02-13 11:17:00,60.3,41.6,30.28,NNW,339,6.0,13.0,50,0.00,,CLR,0.00,VWS V13.01,2013-02-13 19:17:00,
2013-02-13 11:23:00,60.7,42.0,30.28,North,350,6.0,12.0,50,0.00,,CLR,0.00,VWS V13.01,2013-02-13 19:23:00,
2013-02-13 11:29:00,61.1,41.8,30.27,NNW,347,6.0,12.0,49,0.00,,CLR,0.00,VWS V13.01,2013-02-13 19:29:00,
2013-02-13 11:34:00,61.5,41.1,30.27,NNW,342,10.0,12.0,47,0.00,,CLR,0.00,VWS V13.01,2013-02-13 19:34:00,
2013-02-13 11:40:00,61.8,41.9,30.27,NNW,329,7.0,12.0,48,0.00,,CLR,0.00,VWS V13.01,2013-02-13 19:40:00,
2013-02-13 11:46:00,62.2,41.7,30.26,North,355,2.0,12.0,47,0.00,,CLR,0.00,VWS V13.01,2013-02-13 19:46:00,
2013-02-13 11:52:00,62.6,42.1,30.26,NNW,348,5.0,10.0,47,0.00,,CLR,0.00,VWS V13.01,2013-02-13 19:52:00,
2013-02-13 11:58:00,63.2,42.7,30.25,NNW,348,2.0,10.0,47,0.00,,CLR,0.00,VWS V13.01,2013-02-13 19:58:00,
2013-02-13 12:04:00,63.5,43.5,30.26,North,355,9.0,10.0,48,0.00,,CLR,0.00,VWS V13.01,2013-02-13 20:04:00,
2013-02-13 12:10:00,63.9,42.7,30.25,NNW,336,2.0,10.0,46,0.00,,CLR,0.00,VWS V13.01,2013-02-13 20:10:00,
2013-02-13 12:16:00,64.2,42.4,30.25,NNW,336,6.0,11.0,45,0.00,,CLR,0.00,VWS V13.01,2013-02-13 20:16:00,
2013-02-13 12:22:00,64.6,42.8,30.24,NNW,339,2.0,7.0,45,0.00,,CLR,0.00,VWS V13.01,2013-02-13 20:22:00,
2013-02-13 12:28:00,64.9,43.1,30.24,NNW,343,2.0,9.0,45,0.00,,CLR,0.00,VWS V13.01,2013-02-13 20:28:00,
2013-02-13 12:34:00,65.3,44.0,30.24,NNW,332,7.0,10.0,46,0.00,,CLR,0.00,VWS V13.01,2013-02-13 20:34:00,
2013-02-13 12:40:00,65.4,42.9,30.24,NNW,329,5.0,10.0,44,0.00,,CLR,0.00,VWS V13.01,2013-02-13 20:40:00,
2013-02-13 12:46:00,65.6,43.7,30.23,NNW,336,6.0,10.0,45,0.00,,CLR,0.00,VWS V13.01,2013-02-13 20:46:00,
2013-02-13 12:53:00,65.9,41.6,30.23,NNW,331,5.0,7.0,41,0.00,,CLR,0.00,VWS V13.01,2013-02-13 20:53:00,
2013-02-13 12:59:00,65.9,40.9,30.22,NNW,331,1.0,8.0,40,0.00,,CLR,0.00,VWS V13.01,2013-02-13 20:59:00,
2013-02-13 13:05:00,66.3,40.6,30.22,NNW,331,0.0,8.0,39,0.00,,CLR,0.00,VWS V13.01,2013-02-13 21:05:00,
2013-02-13 13:11:00,66.2,40.5,30.22,NNW,332,0.0,7.0,39,0.00,,CLR,0.00,VWS V13.01,2013-02-13 21:11:00,
2013-02-13 13:17:00,66.1,40.5,30.22,NNW,332,0.0,7.0,39,0.00,,CLR,0.00,VWS V13.01,2013-02-13 21:17:00,
2013-02-13 13:23:00,66.4,40.0,30.21,NNW,332,7.0,7.0,38,0.00,,CLR,0.00,VWS V13.01,2013-02-13 21:23:00,
2013-02-13 13:29:00,66.8,41.1,30.21,NNW,331,0.0,9.0,39,0.00,,CLR,0.00,VWS V13.01,2013-02-13 21:29:00,
2013-02-13 13:35:00,67.0,39.2,30.21,NNW,327,7.0,9.0,36,0.00,,CLR,0.00,VWS V13.01,2013-02-13 21:35:00,
2013-02-13 13:40:00,67.1,39.3,30.21,NNW,327,6.0,11.0,36,0.00,,CLR,0.00,VWS V13.01,2013-02-13 21:40:00,
2013-02-13 13:46:00,67.5,41.0,30.20,NNW,343,10.0,11.0,38,0.00,,CLR,0.00,VWS V13.01,2013-02-13 21:46:00,
2013-02-13 13:52:00,67.9,40.0,30.20,NNW,344,7.0,10.0,36,0.00,,CLR,0.00,VWS V13.01,2013-02-13 21:52:00,
2013-02-13 13:58:00,68.2,39.5,30.19,NNW,342,7.0,12.0,35,0.00,,CLR,0.00,VWS V13.01,2013-02-13 21:58:00,
2013-02-13 14:04:00,68.3,38.9,30.19,NW,322,9.0,12.0,34,0.00,,CLR,0.00,VWS V13.01,2013-02-13 22:04:00,
2013-02-13 14:10:00,68.0,39.3,30.19,NNW,333,5.0,9.0,35,0.00,,CLR,0.00,VWS V13.01,2013-02-13 22:10:00,
2013-02-13 14:16:00,68.1,40.2,30.18,NNW,333,0.0,9.0,36,0.00,,CLR,0.00,VWS V13.01,2013-02-13 22:16:00,
2013-02-13 14:22:00,68.3,40.3,30.18,NNW,337,6.0,6.0,36,0.00,,CLR,0.00,VWS V13.01,2013-02-13 22:22:00,
2013-02-13 14:28:00,68.8,39.3,30.18,NNW,340,5.0,10.0,34,0.00,,CLR,0.00,VWS V13.01,2013-02-13 22:28:00,
2013-02-13 14:34:00,69.0,38.7,30.18,NNW,335,5.0,10.0,33,0.00,,CLR,0.00,VWS V13.01,2013-02-13 22:34:00,
2013-02-13 14:40:00,69.1,40.3,30.18,NNW,337,8.0,10.0,35,0.00,,CLR,0.00,VWS V13.01,2013-02-13 22:40:00,
2013-02-13 14:46:00,69.4,39.8,30.18,NNW,341,0.0,10.0,34,0.00,,CLR,0.00,VWS V13.01,2013-02-13 22:46:00,
2013-02-13 14:52:00,69.5,39.9,30.17,NNW,334,5.0,9.0,34,0.00,,CLR,0.00,VWS V13.01,2013-02-13 22:52:00,
2013-02-13 14:58:00,69.7,40.1,30.18,NNW,335,2.0,9.0,34,0.00,,CLR,0.00,VWS V13.01,2013-02-13 22:58:00,
2013-02-13 15:04:00,69.7,40.1,30.18,NNW,334,1.0,9.0,34,0.00,,CLR,0.00,VWS V13.01,2013-02-13 23:04:00,
2013-02-13 15:10:00,69.7,40.1,30.17,NNW,334,4.0,5.0,34,0.00,,CLR,0.00,VWS V13.01,2013-02-13 23:10:00,
2013-02-13 15:16:00,69.4,40.6,30.17,NNW,333,4.0,7.0,35,0.00,,CLR,0.00,VWS V13.01,2013-02-13 23:16:00,
2013-02-13 15:22:00,69.4,41.3,30.17,NNW,333,6.0,6.0,36,0.00,,CLR,0.00,VWS V13.01,2013-02-13 23:22:00,
2013-02-13 15:28:00,69.4,39.1,30.17,NNW,333,0.0,7.0,33,0.00,,CLR,0.00,VWS V13.01,2013-02-13 23:28:00,
2013-02-13 15:34:00,69.1,38.8,30.16,NNW,333,0.0,7.0,33,0.00,,CLR,0.00,VWS V13.01,2013-02-13 23:34:00,
2013-02-13 15:40:00,68.8,39.3,30.16,NNW,346,5.0,10.0,34,0.00,,CLR,0.00,VWS V13.01,2013-02-13 23:40:00,
2013-02-13 15:47:00,68.4,38.2,30.16,NNW,346,4.0,10.0,33,0.00,,CLR,0.00,VWS V13.01,2013-02-13 23:47:00,
2013-02-13 15:53:00,67.8,39.9,30.16,NNW,346,0.0,7.0,36,0.00,,CLR,0.00,VWS V13.01,2013-02-13 23:53:00,
2013-02-13 15:59:00,67.4,38.8,30.16,NNW,346,5.0,7.0,35,0.00,,CLR,0.00,VWS V13.01,2013-02-13 23:59:00,
2013-02-13 16:04:00,67.1,39.3,30.16,NNW,346,4.0,7.0,36,0.00,,CLR,0.00,VWS V13.01,2013-02-14 00:04:00,
2013-02-13 16:11:00,66.8,38.3,30.16,NNW,346,5.0,6.0,35,0.00,,CLR,0.00,VWS V13.01,2013-02-14 00:11:00,
2013-02-13 16:17:00,66.5,38.0,30.16,NNW,338,6.0,8.0,35,0.00,,CLR,0.00,VWS V13.01,2013-02-14 00:17:00,
2013-02-13 16:23:00,66.1,37.7,30.16,NNW,338,4.0,5.0,35,0.00,,CLR,0.00,VWS V13.01,2013-02-14 00:23:00,
2013-02-13 16:29:00,65.8,38.1,30.16,NNW,338,5.0,6.0,36,0.00,,CLR,0.00,VWS V13.01,2013-02-14 00:29:00,
2013-02-13 16:34:00,65.5,38.6,30.15,NNW,338,4.0,7.0,37,0.00,,CLR,0.00,VWS V13.01,2013-02-14 00:34:00,
2013-02-13 16:40:00,65.2,38.3,30.16,NNW,337,1.0,5.0,37,0.00,,CLR,0.00,VWS V13.01,2013-02-14 00:40:00,
2013-02-13 16:46:00,64.9,38.7,30.16,NNW,338,0.0,5.0,38,0.00,,CLR,0.00,VWS V13.01,2013-02-14 00:46:00,
2013-02-13 16:52:00,64.7,38.5,30.15,NNW,338,1.0,5.0,38,0.00,,CLR,0.00,VWS V13.01,2013-02-14 00:52:00,
2013-02-13 16:58:00,64.4,38.3,30.15,NNW,337,0.0,5.0,38,0.00,,CLR,0.00,VWS V13.01,2013-02-14 00:58:00,
2013-02-13 17:04:00,64.0,37.9,30.15,NNW,338,0.0,5.0,38,0.00,,CLR,0.00,VWS V13.01,2013-02-14 01:04:00,
2013-02-13 17:10:00,63.7,38.3,30.15,NNW,338,0.0,2.0,39,0.00,,CLR,0.00,VWS V13.01,2013-02-14 01:10:00,
2013-02-13 17:16:00,63.3,39.2,30.15,NNW,338,0.0,5.0,41,0.00,,CLR,0.00,VWS V13.01,2013-02-14 01:16:00,
2013-02-13 17:22:00,62.7,42.2,30.15,NNW,338,0.0,0.0,47,0.00,,CLR,0.00,VWS V13.01,2013-02-14 01:22:00,
2013-02-13 17:28:00,62.0,42.1,30.15,NNW,337,0.0,0.0,48,0.00,,CLR,0.00,VWS V13.01,2013-02-14 01:28:00,
2013-02-13 17:34:00,61.2,41.9,30.15,NNW,338,0.0,0.0,49,0.00,,CLR,0.00,VWS V13.01,2013-02-14 01:34:00,
2013-02-13 17:40:00,60.6,42.4,30.15,NNW,338,1.0,4.0,51,0.00,,CLR,0.00,VWS V13.01,2013-02-14 01:40:00,
2013-02-13 17:47:00,60.0,42.8,30.15,NNW,338,0.0,4.0,53,0.00,,CLR,0.00,VWS V13.01,2013-02-14 01:47:00,
2013-02-13 17:53:00,59.2,42.6,30.15,NNW,338,0.0,0.0,54,0.00,,CLR,0.00,VWS V13.01,2013-02-14 01:53:00,
2013-02-13 17:59:00,58.5,42.9,30.15,NNW,338,0.0,0.0,56,0.00,,CLR,0.00,VWS V13.01,2013-02-14 01:59:00,
2013-02-13 18:05:00,57.8,42.7,30.15,NNW,337,0.0,0.0,57,0.00,,CLR,0.00,VWS V13.01,2013-02-14 02:05:00,
2013-02-13 18:11:00,57.1,42.5,30.15,NNW,338,1.0,2.0,58,0.00,,CLR,0.00,VWS V13.01,2013-02-14 02:11:00,
2013-02-13 18:17:00,56.6,42.5,30.15,NNW,338,0.0,2.0,59,0.00,,CLR,0.00,VWS V13.01,2013-02-14 02:17:00,
2013-02-13 18:25:00,55.5,41.9,30.16,NNW,338,0.0,0.0,60,0.00,,CLR,0.00,VWS V13.01,2013-02-14 02:25:00,
2013-02-13 18:31:00,54.8,42.0,30.16,NNW,338,0.0,0.0,62,0.00,,CLR,0.00,VWS V13.01,2013-02-14 02:31:00,
2013-02-13 18:40:00,54.4,41.7,30.15,NNW,338,0.0,0.0,62,0.00,,CLR,0.00,VWS V13.01,2013-02-14 02:40:00,
2013-02-13 18:46:00,54.4,41.7,30.15,NNW,338,0.0,0.0,62,0.00,,CLR,0.00,VWS V13.01,2013-02-14 02:46:00,
2013-02-13 18:52:00,54.3,41.6,30.16,NNW,338,0.0,0.0,62,0.00,,CLR,0.00,VWS V13.01,2013-02-14 02:52:00,
2013-02-13 18:58:00,54.3,41.6,30.16,NNW,338,0.0,0.0,62,0.00,,CLR,0.00,VWS V13.01,2013-02-14 02:58:00,
2013-02-13 19:04:00,54.2,41.1,30.16,NNW,338,0.0,0.0,61,0.00,,CLR,0.00,VWS V13.01,2013-02-14 03:04:00,
2013-02-13 19:10:00,54.1,41.0,30.16,NNW,338,0.0,0.0,61,0.00,,CLR,0.00,VWS V13.01,2013-02-14 03:10:00,
2013-02-13 19:17:00,54.0,40.4,30.16,NNW,338,0.0,0.0,60,0.00,,CLR,0.00,VWS V13.01,2013-02-14 03:17:00,
2013-02-13 19:23:00,53.9,40.8,30.16,NNW,338,0.0,0.0,61,0.00,,CLR,0.00,VWS V13.01,2013-02-14 03:23:00,
2013-02-13 19:29:00,53.7,40.6,30.16,NNW,338,0.0,0.0,61,0.00,,CLR,0.00,VWS V13.01,2013-02-14 03:29:00,
2013-02-13 19:34:00,53.5,40.0,30.16,NNW,338,0.0,0.0,60,0.00,,CLR,0.00,VWS V13.01,2013-02-14 03:34:00,
2013-02-13 19:41:00,53.3,39.8,30.16,NNW,338,0.0,0.0,60,0.00,,CLR,0.00,VWS V13.01,2013-02-14 03:41:00,
2013-02-13 19:47:00,53.2,40.1,30.16,NNW,338,0.0,0.0,61,0.00,,CLR,0.00,VWS V13.01,2013-02-14 03:47:00,
2013-02-13 19:53:00,53.1,40.0,30.16,NNW,338,0.0,0.0,61,0.00,,CLR,0.00,VWS V13.01,2013-02-14 03:53:00,
2013-02-13 19:59:00,53.0,39.9,30.17,NNW,338,0.0,0.0,61,0.00,,CLR,0.00,VWS V13.01,2013-02-14 03:59:00,
2013-02-13 20:05:00,52.9,39.8,30.17,NNW,338,0.0,0.0,61,0.00,,CLR,0.00,VWS V13.01,2013-02-14 04:05:00,
2013-02-13 20:10:00,52.8,39.7,30.17,NNW,338,0.0,0.0,61,0.00,,CLR,0.00,VWS V13.01,2013-02-14 04:10:00,
2013-02-13 20:16:00,52.7,40.1,30.16,NNW,338,0.0,0.0,62,0.00,,CLR,0.00,VWS V13.01,2013-02-14 04:16:00,
2013-02-13 20:22:00,52.5,39.9,30.16,NNW,338,0.0,0.0,62,0.00,,CLR,0.00,VWS V13.01,2013-02-14 04:22:00,
2013-02-13 20:28:00,52.3,40.1,30.16,NNW,338,0.0,0.0,63,0.00,,CLR,0.00,VWS V13.01,2013-02-14 04:28:00,
2013-02-13 20:34:00,51.9,40.1,30.17,NNW,338,0.0,0.0,64,0.00,,CLR,0.00,VWS V13.01,2013-02-14 04:34:00,
2013-02-13 20:40:00,51.6,39.8,30.17,NNW,338,0.0,0.0,64,0.00,,CLR,0.00,VWS V13.01,2013-02-14 04:40:00,
2013-02-13 20:46:00,51.1,40.2,30.17,NNW,338,0.0,0.0,66,0.00,,CLR,0.00,VWS V13.01,2013-02-14 04:46:00,
2013-02-13 20:52:00,50.6,39.7,30.17,NNW,338,0.0,0.0,66,0.00,,CLR,0.00,VWS V13.01,2013-02-14 04:52:00,
2013-02-13 20:58:00,50.2,39.7,30.16,NNW,338,0.0,0.0,67,0.00,,CLR,0.00,VWS V13.01,2013-02-14 04:58:00,
2013-02-13 21:00:00,50.1,39.6,30.16,NNW,338,0.0,0.0,67,0.00,,CLR,0.00,VWS V13.01,2013-02-14 05:00:00,
2013-02-13 21:01:00,50.0,39.5,30.16,NNW,338,0.0,0.0,67,0.00,,CLR,0.00,VWS V13.01,2013-02-14 05:01:00,
2013-02-13 21:04:00,49.7,39.2,30.16,NNW,338,0.0,0.0,67,0.00,,CLR,0.00,VWS V13.01,2013-02-14 05:04:00,
2013-02-13 21:06:00,49.6,39.5,30.17,NNW,338,0.0,0.0,68,0.00,,CLR,0.00,VWS V13.01,2013-02-14 05:06:00,
2013-02-13 21:12:00,48.9,39.2,30.17,NNW,338,0.0,0.0,69,0.00,,CLR,0.00,VWS V13.01,2013-02-14 05:12:00,
2013-02-13 21:18:00,48.3,39.0,30.17,NNW,338,0.0,0.0,70,0.00,,CLR,0.00,VWS V13.01,2013-02-14 05:18:00,
2013-02-13 21:24:00,47.7,38.8,30.17,NNW,338,0.0,0.0,71,0.00,,CLR,0.00,VWS V13.01,2013-02-14 05:24:00,
2013-02-13 21:30:00,47.3,39.1,30.17,NNW,338,0.0,0.0,73,0.00,,CLR,0.00,VWS V13.01,2013-02-14 05:30:00,
2013-02-13 21:45:00,46.7,39.2,30.17,North,0,0.0,0.0,75,0.00,,CLR,0.00,VWS V13.01,2013-02-14 05:45:00,
2013-02-13 22:00:00,46.0,38.5,30.17,North,0,0.0,0.0,75,0.00,,CLR,0.00,VWS V13.01,2013-02-14 06:00:00,
2013-02-13 22:15:00,45.6,38.8,30.17,North,0,0.0,0.0,77,0.00,,CLR,0.00,VWS V13.01,2013-02-14 06:15:00,
2013-02-13 22:30:00,45.1,38.3,30.17,North,0,0.0,0.0,77,0.00,,CLR,0.00,VWS V13.01,2013-02-14 06:30:00,
2013-02-13 22:45:00,44.7,38.3,30.17,North,0,0.0,0.0,78,0.00,,CLR,0.00,VWS V13.01,2013-02-14 06:45:00,
2013-02-13 23:00:00,44.4,38.3,30.18,North,0,0.0,0.0,79,0.00,,CLR,0.00,VWS V13.01,2013-02-14 07:00:00,
2013-02-13 23:15:00,44.0,38.2,30.18,North,0,0.0,0.0,80,0.00,,CLR,0.00,VWS V13.01,2013-02-14 07:15:00,
2013-02-13 23:30:00,43.9,38.5,30.18,North,0,0.0,0.0,81,0.00,,CLR,0.00,VWS V13.01,2013-02-14 07:30:00,
2013-02-13 23:45:00,43.6,38.5,30.18,North,0,0.0,0.0,82,0.00,,CLR,0.00,VWS V13.01,2013-02-14 07:45:00,